createdAt,value
2022-12-24T00:01:06.096Z,33.17
2022-12-24T00:03:34.044Z,44.25
2022-12-24T00:06:08.196Z,35.88
2022-12-24T00:08:35.584Z,28.98
2022-12-24T00:11:02.561Z,40.38
2022-12-24T00:13:29.734Z,25.52
2022-12-24T00:15:57.711Z,25.67
2022-12-24T00:18:24.746Z,32.55
2022-12-24T00:20:52.004Z,33.88
2022-12-24T00:23:19.465Z,39.85
2022-12-24T00:25:47.226Z,32.25
2022-12-24T00:28:15.695Z,32.78
2022-12-24T00:30:43.808Z,34.60
2022-12-24T00:33:12.134Z,37.33
2022-12-24T00:35:40.517Z,40.90
2022-12-24T00:38:08.648Z,40.30
2022-12-24T00:40:36.111Z,33.65
2022-12-24T00:43:03.487Z,40.55
2022-12-24T00:45:30.596Z,40.10
2022-12-24T00:47:57.939Z,43.17
2022-12-24T00:50:25.869Z,25.02
2022-12-24T00:52:53.038Z,35.33
2022-12-24T00:55:20.212Z,25.95
2022-12-24T00:57:47.294Z,28.45
2022-12-24T01:00:16.600Z,25.13
2022-12-24T01:02:44.371Z,40.55
2022-12-24T01:05:12.387Z,29.98
2022-12-24T01:07:42.143Z,27.83
2022-12-24T01:10:10.006Z,38.58
2022-12-24T01:12:39.003Z,28.75
2022-12-24T01:15:06.955Z,35.50
2022-12-24T01:17:35.464Z,31.45
2022-12-24T01:20:03.812Z,48.17
2022-12-24T01:22:31.143Z,37.10
2022-12-24T01:24:58.398Z,45.00
2022-12-24T01:27:25.728Z,34.17
2022-12-24T01:29:52.776Z,40.85
2022-12-24T01:32:19.925Z,37.63
2022-12-24T01:34:51.195Z,40.38
2022-12-24T01:37:18.687Z,37.95
2022-12-24T01:39:45.737Z,48.58
2022-12-24T01:42:43.831Z,33.67
2022-12-24T01:45:41.986Z,46.90
2022-12-24T01:48:29.791Z,52.50
2022-12-24T01:51:04.078Z,50.22
2022-12-24T01:53:33.725Z,39.85
2022-12-24T01:56:01.345Z,42.97
2022-12-24T01:58:28.793Z,44.00
2022-12-24T02:00:57.035Z,35.83
2022-12-24T02:03:24.221Z,29.92
2022-12-24T02:05:58.014Z,38.33
2022-12-24T02:08:40.211Z,32.83
2022-12-24T02:11:25.569Z,30.58
2022-12-24T02:13:59.526Z,24.67
2022-12-24T02:20:05.710Z,24.98
2022-12-24T02:22:50.593Z,20.40
2022-12-24T02:25:38.687Z,10.68
2022-12-24T02:28:08.383Z,4.05
2022-12-24T02:30:54.262Z,9.13
2022-12-24T02:36:38.571Z,12.52
2022-12-24T02:42:06.380Z,39.88
2022-12-24T02:47:34.056Z,33.55
2022-12-24T02:50:02.702Z,21.23
2022-12-24T02:52:32.823Z,15.73
2022-12-24T02:55:17.227Z,20.50
2022-12-24T02:57:53.256Z,23.30
2022-12-24T03:00:22.960Z,20.63
2022-12-24T03:03:28.917Z,23.02
2022-12-24T03:06:21.208Z,43.55
2022-12-24T03:09:20.741Z,32.88
2022-12-24T03:12:10.858Z,34.40
2022-12-24T03:14:42.129Z,36.90
2022-12-24T03:17:10.422Z,37.63
2022-12-24T03:19:37.954Z,46.13
2022-12-24T03:22:09.038Z,39.45
2022-12-24T03:24:37.446Z,34.03
2022-12-24T03:27:09.582Z,32.28
2022-12-24T03:32:06.376Z,32.22
2022-12-24T03:34:34.107Z,45.47
2022-12-24T03:37:01.316Z,34.05
2022-12-24T03:39:28.661Z,43.55
2022-12-24T03:41:55.816Z,40.92
2022-12-24T03:44:23.095Z,48.47
2022-12-24T03:46:50.184Z,55.03
2022-12-24T03:49:17.190Z,42.10
2022-12-24T03:51:44.625Z,54.72
2022-12-24T03:54:12.085Z,43.55
2022-12-24T03:56:39.249Z,44.35
2022-12-24T03:59:06.656Z,47.33
2022-12-24T04:01:35.662Z,40.63
2022-12-24T04:04:02.824Z,44.45
2022-12-24T04:06:29.830Z,40.80
2022-12-24T04:08:56.911Z,44.05
2022-12-24T04:11:23.974Z,50.95
2022-12-24T04:13:51.019Z,37.85
2022-12-24T04:16:18.202Z,41.22
2022-12-24T04:18:45.396Z,53.33
2022-12-24T04:21:12.948Z,41.85
2022-12-24T04:23:41.934Z,54.17
2022-12-24T04:26:11.405Z,51.05
2022-12-24T04:28:39.619Z,41.42
2022-12-24T04:31:09.066Z,41.80
2022-12-24T04:33:36.906Z,43.38
2022-12-24T04:36:06.759Z,42.00
2022-12-24T04:38:37.181Z,42.05
2022-12-24T04:41:24.897Z,50.10
2022-12-24T04:43:56.004Z,42.70
2022-12-24T04:46:30.719Z,49.22
2022-12-24T04:48:58.421Z,42.20
2022-12-24T04:51:26.867Z,39.08
2022-12-24T04:53:55.065Z,42.95
2022-12-24T04:56:25.220Z,45.55
2022-12-24T04:58:52.792Z,49.67
2022-12-24T05:01:25.894Z,49.75
2022-12-24T05:03:53.642Z,50.47
2022-12-24T05:06:26.896Z,46.65
2022-12-24T05:08:55.828Z,44.97
2022-12-24T05:11:24.976Z,48.70
2022-12-24T05:13:52.126Z,52.95
2022-12-24T05:16:20.657Z,37.38
2022-12-24T05:18:48.063Z,44.78
2022-12-24T05:21:18.262Z,35.17
2022-12-24T05:24:04.646Z,41.17
2022-12-24T05:26:34.562Z,42.45
2022-12-24T05:29:04.048Z,32.60
2022-12-24T05:31:33.501Z,38.15
2022-12-24T05:34:01.789Z,36.92
2022-12-24T05:36:29.274Z,38.42
2022-12-24T05:38:56.575Z,47.42
2022-12-24T05:41:24.379Z,42.28
2022-12-24T05:43:53.185Z,41.53
2022-12-24T05:46:22.506Z,51.03
2022-12-24T05:48:50.829Z,39.63
2022-12-24T05:51:20.273Z,40.15
2022-12-24T05:53:47.848Z,43.05
2022-12-24T05:56:17.717Z,43.72
2022-12-24T05:58:46.132Z,32.08
2022-12-24T06:01:14.048Z,41.42
2022-12-24T06:03:41.947Z,39.28
2022-12-24T06:06:14.819Z,39.28
2022-12-24T06:08:42.595Z,38.85
2022-12-24T06:11:12.985Z,48.28
2022-12-24T06:13:41.240Z,43.35
2022-12-24T06:16:11.489Z,35.42
2022-12-24T06:18:38.835Z,42.78
2022-12-24T06:21:06.688Z,43.88
2022-12-24T06:23:36.134Z,45.92
2022-12-24T06:26:04.641Z,44.00
2022-12-24T06:28:34.887Z,40.85
2022-12-24T06:31:03.891Z,41.88
2022-12-24T06:33:32.694Z,47.65
2022-12-24T06:35:59.882Z,43.75
2022-12-24T06:38:27.155Z,41.03
2022-12-24T06:40:55.983Z,37.92
2022-12-24T06:43:23.228Z,50.63
2022-12-24T06:45:50.344Z,47.13
2022-12-24T06:48:17.552Z,43.72
2022-12-24T06:50:44.859Z,37.70
2022-12-24T06:53:11.986Z,44.13
2022-12-24T06:55:39.064Z,45.97
2022-12-24T06:58:06.229Z,40.67
2022-12-24T07:00:33.535Z,39.10
2022-12-24T07:03:00.621Z,37.25
2022-12-24T07:05:32.622Z,42.75
2022-12-24T07:07:59.770Z,36.37
2022-12-24T07:10:26.773Z,37.78
2022-12-24T07:12:54.150Z,44.63
2022-12-24T07:15:21.540Z,51.47
2022-12-24T07:17:48.694Z,47.28
2022-12-24T07:20:16.670Z,42.35
2022-12-24T07:22:43.721Z,40.83
2022-12-24T07:25:12.179Z,49.13
2022-12-24T07:27:39.779Z,36.47
2022-12-24T07:30:07.679Z,49.42
2022-12-24T07:32:35.210Z,35.58
2022-12-24T07:35:02.321Z,49.75
2022-12-24T07:37:29.317Z,35.88
2022-12-24T07:39:56.240Z,40.72
2022-12-24T07:42:23.590Z,35.05
2022-12-24T07:44:52.182Z,37.05
2022-12-24T07:47:22.053Z,46.00
2022-12-24T07:49:52.150Z,43.15
2022-12-24T07:52:19.396Z,39.65
2022-12-24T07:54:46.771Z,35.75
2022-12-24T07:57:13.995Z,49.03
2022-12-24T07:59:41.243Z,37.40
2022-12-24T08:02:17.999Z,42.92
2022-12-24T08:04:45.652Z,52.55
2022-12-24T08:07:12.978Z,41.33
2022-12-24T08:09:40.240Z,36.55
2022-12-24T08:12:07.844Z,47.50
2022-12-24T08:14:34.967Z,51.55
2022-12-24T08:17:02.003Z,44.33
2022-12-24T08:19:29.391Z,43.40
2022-12-24T08:21:56.322Z,35.03
2022-12-24T08:24:23.522Z,44.22
2022-12-24T08:26:50.531Z,40.72
2022-12-24T08:29:17.721Z,56.60
2022-12-24T08:31:44.899Z,56.30
2022-12-24T08:34:12.714Z,55.80
2022-12-24T08:36:39.924Z,46.00
2022-12-24T08:39:08.920Z,41.50
2022-12-24T08:41:36.500Z,46.25
2022-12-24T08:44:05.356Z,54.28
2022-12-24T08:46:32.280Z,40.80
2022-12-24T08:48:59.359Z,41.72
2022-12-24T08:51:26.480Z,42.78
2022-12-24T08:53:53.608Z,45.15
2022-12-24T08:56:21.232Z,39.33
2022-12-24T08:58:49.330Z,58.25
2022-12-24T09:01:20.807Z,40.08
2022-12-24T09:03:48.466Z,46.20
2022-12-24T09:06:16.147Z,36.15
2022-12-24T09:08:46.567Z,45.45
2022-12-24T09:11:18.286Z,46.13
2022-12-24T09:13:45.603Z,47.47
2022-12-24T09:16:13.941Z,46.33
2022-12-24T09:18:41.140Z,45.45
2022-12-24T09:21:16.610Z,37.55
2022-12-24T09:23:45.531Z,40.25
2022-12-24T09:26:20.125Z,40.75
2022-12-24T09:28:47.729Z,56.05
2022-12-24T09:31:16.423Z,38.42
2022-12-24T09:33:45.680Z,43.92
2022-12-24T09:36:14.437Z,45.33
2022-12-24T09:38:41.680Z,49.78
2022-12-24T09:41:15.080Z,53.78
2022-12-24T09:43:49.378Z,48.47
2022-12-24T09:46:28.534Z,46.80
2022-12-24T09:48:59.156Z,38.85
2022-12-24T09:51:37.906Z,36.50
2022-12-24T09:54:10.774Z,43.45
2022-12-24T09:56:45.255Z,43.78
2022-12-24T09:59:21.556Z,47.38
2022-12-24T10:01:52.820Z,45.88
2022-12-24T10:04:23.872Z,37.40
2022-12-24T10:07:12.172Z,40.95
2022-12-24T10:09:44.308Z,40.10
2022-12-24T10:15:23.045Z,49.25
2022-12-24T10:18:07.082Z,41.70
2022-12-24T10:20:40.681Z,35.75
2022-12-24T10:23:26.374Z,41.00
2022-12-24T10:26:32.424Z,36.10
2022-12-24T10:29:15.882Z,32.00
2022-12-24T10:32:01.139Z,36.10
2022-12-24T10:34:33.979Z,42.42
2022-12-24T10:37:05.805Z,38.65
2022-12-24T10:39:33.060Z,43.75
2022-12-24T10:42:01.523Z,38.10
2022-12-24T10:44:32.611Z,42.15
2022-12-24T10:46:59.889Z,40.25
2022-12-24T10:49:44.869Z,39.08
2022-12-24T10:52:15.654Z,42.90
2022-12-24T10:55:20.067Z,38.08
2022-12-24T10:58:00.156Z,33.38
2022-12-24T11:00:35.625Z,37.30
2022-12-24T11:03:13.641Z,39.78
2022-12-24T11:05:41.246Z,35.10
2022-12-24T11:08:17.663Z,37.10
2022-12-24T11:11:24.117Z,42.75
2022-12-24T11:13:51.298Z,34.85
2022-12-24T11:16:21.279Z,44.42
2022-12-24T11:18:53.827Z,39.08
2022-12-24T11:21:29.648Z,37.33
2022-12-24T11:24:00.139Z,37.88
2022-12-24T11:26:30.731Z,36.90
2022-12-24T11:29:28.327Z,45.92
2022-12-24T11:32:21.277Z,28.27
2022-12-24T11:34:49.029Z,31.88
2022-12-24T11:37:22.614Z,32.45
2022-12-24T11:39:54.194Z,28.25
2022-12-24T11:42:32.734Z,29.58
2022-12-24T11:45:03.362Z,31.33
2022-12-24T11:47:34.798Z,30.05
2022-12-24T11:50:42.271Z,34.30
2022-12-24T11:53:24.227Z,38.42
2022-12-24T11:55:55.788Z,24.10
2022-12-24T11:58:40.111Z,29.25
2022-12-24T12:01:17.615Z,35.97
2022-12-24T12:03:51.304Z,34.00
2022-12-24T12:06:38.610Z,35.03
2022-12-24T12:09:31.562Z,42.65
2022-12-24T12:12:22.424Z,39.85
2022-12-24T12:15:01.739Z,33.42
2022-12-24T12:18:08.995Z,37.03
2022-12-24T12:20:43.460Z,42.42
2022-12-24T12:23:13.548Z,28.63
2022-12-24T12:25:55.456Z,31.92
2022-12-24T12:28:28.486Z,25.70
2022-12-24T12:31:16.530Z,31.67
2022-12-24T12:33:57.744Z,34.90
2022-12-24T12:36:33.815Z,29.48
2022-12-24T12:39:03.984Z,28.83
2022-12-24T12:41:31.021Z,32.10
2022-12-24T12:44:33.082Z,22.17
2022-12-24T12:47:26.969Z,28.55
2022-12-24T12:50:19.096Z,25.00
2022-12-24T12:52:46.327Z,30.60
2022-12-24T12:55:26.822Z,33.22
2022-12-24T12:58:01.000Z,30.20
2022-12-24T13:00:32.684Z,25.80
2022-12-24T13:03:42.743Z,26.05
2022-12-24T13:06:40.121Z,33.65
2022-12-24T13:09:33.290Z,27.48
2022-12-24T13:12:18.953Z,28.70
2022-12-24T13:14:59.233Z,28.85
2022-12-24T13:17:52.703Z,23.27
2022-12-24T13:20:30.450Z,32.92
2022-12-24T13:22:59.912Z,25.63
2022-12-24T13:25:40.359Z,25.77
2022-12-24T13:28:28.615Z,27.45
2022-12-24T13:31:02.080Z,34.00
2022-12-24T13:33:38.515Z,29.45
2022-12-24T13:36:11.501Z,40.30
2022-12-24T13:38:42.637Z,31.60
2022-12-24T13:41:42.217Z,44.03
2022-12-24T13:44:17.912Z,27.63
2022-12-24T13:47:07.114Z,34.97
2022-12-24T13:49:34.214Z,22.20
2022-12-24T13:52:15.426Z,34.35
2022-12-24T13:54:48.371Z,26.20
2022-12-24T13:57:34.068Z,21.52
2022-12-24T14:00:09.037Z,24.25
2022-12-24T14:03:03.131Z,23.05
2022-12-24T14:05:52.724Z,22.65
2022-12-24T14:08:40.131Z,28.17
2022-12-24T14:11:22.189Z,31.50
2022-12-24T14:13:49.327Z,34.92
2022-12-24T14:16:19.760Z,37.20
2022-12-24T14:18:58.593Z,32.15
2022-12-24T14:21:29.903Z,37.08
2022-12-24T14:24:06.456Z,30.40
2022-12-24T14:26:45.994Z,30.40
2022-12-24T14:29:36.359Z,38.13
2022-12-24T14:32:15.778Z,34.13
2022-12-24T14:34:44.727Z,31.88
2022-12-24T14:37:13.916Z,33.40
2022-12-24T14:39:48.685Z,25.58
2022-12-24T14:42:29.564Z,33.58
2022-12-24T14:45:28.412Z,32.83
2022-12-24T14:48:16.094Z,34.22
2022-12-24T14:51:12.959Z,33.85
2022-12-24T14:54:00.987Z,36.28
2022-12-24T14:56:27.992Z,25.50
2022-12-24T14:58:55.119Z,34.05
2022-12-24T15:01:30.435Z,35.88
2022-12-24T15:04:10.835Z,38.85
2022-12-24T15:06:53.892Z,40.17
2022-12-24T15:09:24.607Z,40.58
2022-12-24T15:11:54.823Z,31.58
2022-12-24T15:14:24.724Z,32.33
2022-12-24T15:17:04.402Z,36.65
2022-12-24T15:19:33.604Z,32.17
2022-12-24T15:22:03.190Z,37.03
2022-12-24T15:24:36.743Z,24.80
2022-12-24T15:27:19.432Z,32.47
2022-12-24T15:29:48.554Z,36.10
2022-12-24T15:32:17.844Z,35.20
2022-12-24T15:34:48.677Z,27.02
2022-12-24T15:37:28.453Z,35.53
2022-12-24T15:39:59.767Z,25.58
2022-12-24T15:42:31.044Z,42.70
2022-12-24T15:45:02.927Z,68.88
2022-12-24T15:47:38.478Z,43.20
2022-12-24T15:50:17.142Z,54.17
2022-12-24T15:52:45.359Z,36.33
2022-12-24T15:55:47.757Z,41.42
2022-12-24T15:58:27.363Z,38.10
2022-12-24T16:01:09.571Z,49.42
2022-12-24T16:03:39.409Z,50.30
2022-12-24T16:06:09.069Z,37.53
2022-12-24T16:08:40.683Z,42.20
2022-12-24T16:11:21.270Z,32.03
2022-12-24T16:13:51.187Z,31.75
2022-12-24T16:16:31.359Z,44.25
2022-12-24T16:18:59.998Z,36.90
2022-12-24T16:21:40.472Z,45.65
2022-12-24T16:24:16.101Z,37.78
2022-12-24T16:26:44.383Z,37.58
2022-12-24T16:29:13.131Z,45.00
2022-12-24T16:31:54.528Z,36.83
2022-12-24T16:34:27.503Z,34.25
2022-12-24T16:36:54.887Z,33.28
2022-12-24T16:39:33.255Z,38.55
2022-12-24T16:42:21.236Z,32.42
2022-12-24T16:44:49.629Z,31.73
2022-12-24T16:47:24.062Z,47.15
2022-12-24T16:49:51.578Z,28.52
2022-12-24T16:52:22.503Z,38.88
2022-12-24T16:54:50.608Z,35.58
2022-12-24T16:57:18.682Z,31.60
2022-12-24T16:59:46.189Z,42.78
2022-12-24T17:02:15.650Z,32.50
2022-12-24T17:04:43.372Z,31.10
2022-12-24T17:07:14.620Z,36.53
2022-12-24T17:09:42.007Z,26.30
2022-12-24T17:12:10.192Z,31.95
2022-12-24T17:14:40.056Z,30.27
2022-12-24T17:17:10.700Z,35.47
2022-12-24T17:19:37.711Z,30.50
2022-12-24T17:22:05.928Z,30.40
2022-12-24T17:24:33.579Z,40.50
2022-12-24T17:27:01.816Z,38.28
2022-12-24T17:29:28.927Z,33.10
2022-12-24T17:31:56.032Z,42.45
2022-12-24T17:34:23.249Z,29.98
2022-12-24T17:36:50.259Z,30.42
2022-12-24T17:39:20.829Z,36.83
2022-12-24T17:41:51.326Z,40.13
2022-12-24T17:44:18.385Z,40.35
2022-12-24T17:46:48.528Z,35.80
2022-12-24T17:49:15.712Z,39.63
2022-12-24T17:51:45.595Z,25.67
2022-12-24T17:54:13.805Z,31.85
2022-12-24T17:56:41.006Z,36.67
2022-12-24T17:59:08.163Z,27.83
2022-12-24T18:01:35.229Z,37.88
2022-12-24T18:04:03.808Z,39.50
2022-12-24T18:06:31.412Z,27.98
2022-12-24T18:08:58.445Z,26.13
2022-12-24T18:11:33.014Z,26.30
2022-12-24T18:14:01.848Z,36.10
2022-12-24T18:16:32.290Z,30.25
2022-12-24T18:19:00.253Z,22.88
2022-12-24T18:21:29.533Z,32.25
2022-12-24T18:23:56.966Z,24.85
2022-12-24T18:26:26.935Z,35.45
2022-12-24T18:28:55.388Z,28.52
2022-12-24T18:31:23.810Z,36.33
2022-12-24T18:33:52.128Z,42.42
2022-12-24T18:36:20.096Z,48.20
2022-12-24T18:38:48.286Z,27.90
2022-12-24T18:41:18.463Z,29.90
2022-12-24T18:43:45.771Z,32.63
2022-12-24T18:46:33.184Z,25.60
2022-12-24T18:49:01.325Z,19.27
2022-12-24T18:51:36.315Z,27.65
2022-12-24T18:54:06.416Z,30.20
2022-12-24T18:56:33.760Z,38.70
2022-12-24T18:59:02.827Z,38.63
2022-12-24T19:01:33.128Z,35.20
2022-12-24T19:04:01.395Z,30.95
2022-12-24T19:06:28.484Z,20.67
2022-12-24T19:08:57.600Z,25.05
2022-12-24T19:11:26.966Z,38.38
2022-12-24T19:13:54.228Z,33.85
2022-12-24T19:16:22.102Z,28.70
2022-12-24T19:18:50.317Z,29.38
2022-12-24T19:21:18.970Z,25.10
2022-12-24T19:23:48.354Z,24.60
2022-12-24T19:26:17.775Z,37.60
2022-12-24T19:28:45.923Z,28.98
2022-12-24T19:31:16.076Z,26.00
2022-12-24T19:33:46.906Z,30.33
2022-12-24T19:36:20.366Z,28.77
2022-12-24T19:38:47.716Z,24.50
2022-12-24T19:41:17.076Z,27.98
2022-12-24T19:43:46.538Z,26.17
2022-12-24T19:46:17.480Z,30.88
2022-12-24T19:48:48.525Z,30.77
2022-12-24T19:51:15.720Z,21.85
2022-12-24T19:53:42.878Z,30.90
2022-12-24T19:56:09.999Z,35.40
2022-12-24T19:58:38.174Z,29.23
2022-12-24T20:01:15.207Z,28.67
2022-12-24T20:03:44.596Z,25.38
2022-12-24T20:06:12.732Z,28.17
2022-12-24T20:08:40.409Z,35.75
2022-12-24T20:11:10.098Z,25.13
2022-12-24T20:13:38.404Z,19.92
2022-12-24T20:16:14.946Z,24.73
2022-12-24T20:18:42.082Z,23.13
2022-12-24T20:21:12.389Z,21.63
2022-12-24T20:23:40.988Z,27.58
2022-12-24T20:26:12.780Z,30.38
2022-12-24T20:28:42.702Z,35.60
2022-12-24T20:31:27.803Z,26.33
2022-12-24T20:33:56.650Z,25.08
2022-12-24T20:36:24.169Z,26.42
2022-12-24T20:38:51.644Z,19.13
2022-12-24T20:41:20.816Z,31.40
2022-12-24T20:43:49.066Z,25.02
2022-12-24T20:46:19.458Z,30.45
2022-12-24T20:48:46.722Z,21.40
2022-12-24T20:51:23.226Z,24.40
2022-12-24T20:53:52.867Z,16.13
2022-12-24T20:56:22.284Z,20.40
2022-12-24T20:58:49.740Z,16.88
2022-12-24T21:01:26.396Z,22.00
2022-12-24T21:03:55.265Z,21.63
2022-12-24T21:06:23.933Z,21.45
2022-12-24T21:08:52.481Z,15.75
2022-12-24T21:11:39.502Z,22.75
2022-12-24T21:14:08.052Z,18.77
2022-12-24T21:16:36.562Z,14.05
2022-12-24T21:19:04.740Z,25.25
2022-12-24T21:21:33.025Z,20.23
2022-12-24T21:24:00.742Z,17.00
2022-12-24T21:26:29.451Z,25.25
2022-12-24T21:28:56.805Z,19.48
2022-12-24T21:31:24.133Z,20.38
2022-12-24T21:33:51.715Z,16.05
2022-12-24T21:36:21.400Z,18.88
2022-12-24T21:38:48.600Z,18.42
2022-12-24T21:41:18.691Z,19.73
2022-12-24T21:43:47.235Z,18.67
2022-12-24T21:46:22.491Z,24.52
2022-12-24T21:49:12.170Z,16.48
2022-12-24T21:51:39.661Z,23.17
2022-12-24T21:54:25.772Z,10.52
2022-12-24T21:57:22.976Z,21.38
2022-12-24T21:59:51.774Z,14.95
2022-12-24T22:02:23.250Z,18.33
2022-12-24T22:04:51.020Z,24.73
2022-12-24T22:07:44.746Z,13.65
2022-12-24T22:10:32.313Z,16.02
2022-12-24T22:13:00.605Z,12.10
2022-12-24T22:15:27.937Z,14.65
2022-12-24T22:17:55.138Z,13.82
2022-12-24T22:20:22.068Z,16.40
2022-12-24T22:22:51.700Z,16.25
2022-12-24T22:25:18.905Z,21.58
2022-12-24T22:27:46.173Z,19.50
2022-12-24T22:30:13.336Z,18.58
2022-12-24T22:32:40.430Z,16.40
2022-12-24T22:35:07.674Z,17.05
2022-12-24T22:37:37.521Z,15.02
2022-12-24T22:40:04.971Z,19.73
2022-12-24T22:42:33.025Z,12.35
2022-12-24T22:45:00.845Z,15.90
2022-12-24T22:47:29.011Z,25.55
2022-12-24T22:49:56.474Z,26.17
2022-12-24T22:52:24.838Z,12.70
2022-12-24T22:54:51.942Z,19.65
2022-12-24T22:57:19.290Z,18.65
2022-12-24T22:59:49.825Z,14.27
2022-12-24T23:02:23.889Z,14.07
2022-12-24T23:04:54.659Z,14.60
2022-12-24T23:07:21.843Z,18.23
2022-12-24T23:09:49.147Z,19.65
2022-12-24T23:12:36.900Z,13.50
2022-12-24T23:15:05.994Z,15.05
2022-12-24T23:17:33.067Z,13.68
2022-12-24T23:20:02.215Z,15.88
2022-12-24T23:22:29.329Z,16.65
2022-12-24T23:24:56.677Z,14.77
2022-12-24T23:27:26.098Z,13.80
2022-12-24T23:29:53.151Z,14.32
2022-12-24T23:32:20.324Z,12.10
2022-12-24T23:34:47.718Z,14.70
2022-12-24T23:37:14.980Z,18.08
2022-12-24T23:39:43.839Z,9.52
2022-12-24T23:42:10.821Z,11.98
2022-12-24T23:44:37.819Z,13.25
2022-12-24T23:47:05.989Z,16.02
2022-12-24T23:49:33.161Z,9.80
2022-12-24T23:52:00.640Z,12.30
2022-12-24T23:54:29.022Z,13.23
2022-12-24T23:56:56.033Z,13.80
2022-12-24T23:59:23.574Z,10.30
